PWSweather.com
Personal Weather Stations
Station Observations
APRSFL1
Magnolia Valley, New Port Richey, FL 34653

Magnolia ValleyNew Port Richey, FL 34653

Lat: 28.26, Lon: -82.688

Elevation: 19

Station Type: Davis Vantage Pro 2 Plus with 70ft high Webcam

http://www.aprsfl.net/weather

Latest ConditionsUpdated 2:15:07 AM EDT Saturday, May 30, 2015
Currently Today's Max Today's Min Today's Average
Temperature 72.0°F22.2°C 75.7°F24.3°C 72.0°F22.2°C 73.7°F23.2°C
Dew Point 67.6°F19.8°C 68.7°F20.4°C 67.5°F19.7°C 68.0°F20.0°C
Winds 2.0 mph ESE3.2 kmh ESE 4.0 mph E6.4 kmh E - 1.6 mph 2.6 kmh
Wind Gusts 3.0 mph4.8 kmh 4.0 mph6.4 kmh - -
Humidity 86% 86% 79% 83%
Pressure 30.09 in1019.0 mb 30.12 in1020.0 mb 30.09 in1019.0 mb -
Hour Temp Dew Point Humidity Winds Wind Gusts Pressure Precip Precip Rate Daily Precip Total
02:15 AM 72.0°F22.2°C 67.6°F19.8°C 86% 2.0 mph ESE3.2 kmh ESE 3.0 mph4.8 kmh 30.09 in1019.0 mb 0.00 in0.0 mm 0.00 in0.0 mm 0.00 in0.0 mm
02:10 AM 72.1°F22.3°C 67.7°F19.8°C 86% 1.0 mph E1.6 kmh E 3.0 mph4.8 kmh 30.09 in1019.0 mb 0.00 in0.0 mm 0.00 in0.0 mm 0.00 in0.0 mm
02:05 AM 72.2°F22.3°C 67.5°F19.7°C 85% 1.0 mph SE1.6 kmh SE 2.0 mph3.2 kmh 30.10 in1019.3 mb 0.00 in0.0 mm 0.00 in0.0 mm 0.00 in0.0 mm
02:00 AM 72.4°F22.4°C 67.6°F19.8°C 85% Calm Calm 1.0 mph1.6 kmh 30.10 in1019.3 mb 0.00 in0.0 mm 0.00 in0.0 mm 0.00 in0.0 mm
01:55 AM 72.5°F22.5°C 67.7°F19.8°C 85% 1.0 mph ESE1.6 kmh ESE 2.0 mph3.2 kmh 30.10 in1019.3 mb 0.00 in0.0 mm 0.00 in0.0 mm 0.00 in0.0 mm
01:50 AM 72.6°F22.6°C 67.5°F19.7°C 84% 3.0 mph SE4.8 kmh SE 3.0 mph4.8 kmh 30.10 in1019.3 mb 0.00 in0.0 mm 0.00 in0.0 mm 0.00 in0.0 mm
01:45 AM 72.7°F22.6°C 67.6°F19.8°C 84% Calm Calm 1.0 mph1.6 kmh 30.10 in1019.3 mb 0.00 in0.0 mm 0.00 in0.0 mm 0.00 in0.0 mm
01:40 AM 72.8°F22.7°C 67.7°F19.8°C 84% Calm Calm -- 30.10 in1019.3 mb 0.00 in0.0 mm 0.00 in0.0 mm 0.00 in0.0 mm
01:35 AM 72.9°F22.7°C 67.8°F19.9°C 84% Calm Calm 4.0 mph6.4 kmh 30.10 in1019.3 mb 0.00 in0.0 mm 0.00 in0.0 mm 0.00 in0.0 mm
01:30 AM 73.0°F22.8°C 67.9°F19.9°C 84% 2.0 mph ESE3.2 kmh ESE 3.0 mph4.8 kmh 30.11 in1019.6 mb 0.00 in0.0 mm 0.00 in0.0 mm 0.00 in0.0 mm
01:25 AM 73.1°F22.8°C 67.6°F19.8°C 83% 3.0 mph ESE4.8 kmh ESE 3.0 mph4.8 kmh 30.11 in1019.6 mb 0.00 in0.0 mm 0.00 in0.0 mm 0.00 in0.0 mm
01:20 AM 73.3°F22.9°C 67.8°F19.9°C 83% 2.0 mph ESE3.2 kmh ESE 4.0 mph6.4 kmh 30.11 in1019.6 mb 0.00 in0.0 mm 0.00 in0.0 mm 0.00 in0.0 mm
01:15 AM 73.4°F23.0°C 67.9°F19.9°C 83% 1.0 mph ESE1.6 kmh ESE 4.0 mph6.4 kmh 30.11 in1019.6 mb 0.00 in0.0 mm 0.00 in0.0 mm 0.00 in0.0 mm
01:10 AM 73.5°F23.1°C 68.0°F20.0°C 83% 3.0 mph E4.8 kmh E 3.0 mph4.8 kmh 30.11 in1019.6 mb 0.00 in0.0 mm 0.00 in0.0 mm 0.00 in0.0 mm
01:05 AM 73.7°F23.2°C 67.9°F19.9°C 82% Calm Calm -- 30.11 in1019.6 mb 0.00 in0.0 mm 0.00 in0.0 mm 0.00 in0.0 mm
01:00 AM 73.8°F23.2°C 68.0°F20.0°C 82% 1.0 mph E1.6 kmh E 3.0 mph4.8 kmh 30.11 in1019.6 mb 0.00 in0.0 mm 0.00 in0.0 mm 0.00 in0.0 mm
12:55 AM 74.0°F23.3°C 68.2°F20.1°C 82% Calm Calm -- 30.11 in1019.6 mb 0.00 in0.0 mm 0.00 in0.0 mm 0.00 in0.0 mm
12:50 AM 74.0°F23.3°C 68.2°F20.1°C 82% 2.0 mph ESE3.2 kmh ESE 4.0 mph6.4 kmh 30.11 in1019.6 mb 0.00 in0.0 mm 0.00 in0.0 mm 0.00 in0.0 mm
12:45 AM 74.2°F23.4°C 68.4°F20.2°C 82% 2.0 mph ESE3.2 kmh ESE 2.0 mph3.2 kmh 30.11 in1019.6 mb 0.00 in0.0 mm 0.00 in0.0 mm 0.00 in0.0 mm
12:40 AM 74.3°F23.5°C 68.1°F20.1°C 81% 3.0 mph SE4.8 kmh SE 3.0 mph4.8 kmh 30.12 in1020.0 mb 0.00 in0.0 mm 0.00 in0.0 mm 0.00 in0.0 mm
12:35 AM 74.5°F23.6°C 68.3°F20.2°C 81% 3.0 mph ESE4.8 kmh ESE 4.0 mph6.4 kmh 30.12 in1020.0 mb 0.00 in0.0 mm 0.00 in0.0 mm 0.00 in0.0 mm
12:30 AM 74.7°F23.7°C 68.5°F20.3°C 81% Calm Calm -- 30.12 in1020.0 mb 0.00 in0.0 mm 0.00 in0.0 mm 0.00 in0.0 mm
12:25 AM 74.8°F23.8°C 68.6°F20.3°C 81% 4.0 mph E6.4 kmh E 4.0 mph6.4 kmh 30.12 in1020.0 mb 0.00 in0.0 mm 0.00 in0.0 mm 0.00 in0.0 mm
12:20 AM 75.0°F23.9°C 68.4°F20.2°C 80% 2.0 mph E3.2 kmh E 4.0 mph6.4 kmh 30.12 in1020.0 mb 0.00 in0.0 mm 0.00 in0.0 mm 0.00 in0.0 mm
12:15 AM 75.2°F24.0°C 68.6°F20.3°C 80% 4.0 mph ESE6.4 kmh ESE 4.0 mph6.4 kmh 30.12 in1020.0 mb 0.00 in0.0 mm 0.00 in0.0 mm 0.00 in0.0 mm
12:10 AM 75.3°F24.1°C 68.3°F20.2°C 79% 1.0 mph SE1.6 kmh SE 3.0 mph4.8 kmh 30.12 in1020.0 mb 0.00 in0.0 mm 0.00 in0.0 mm 0.00 in0.0 mm
12:05 AM 75.5°F24.2°C 68.5°F20.3°C 79% 2.0 mph E3.2 kmh E 3.0 mph4.8 kmh 30.12 in1020.0 mb 0.00 in0.0 mm 0.00 in0.0 mm 0.00 in0.0 mm
12:00 AM 75.7°F24.3°C 68.7°F20.4°C 79% 1.0 mph E1.6 kmh E 2.0 mph3.2 kmh 30.12 in1020.0 mb 0.00 in0.0 mm 0.00 in0.0 mm 0.00 in0.0 mm